Time;durP1;ratioP1;P1;durP2;ratioP2;P2;SDS_P1;SDS_P2;PMS_P1;PMS_P2;Temp;Humidity;BMP_temperature;BMP_pressure;BME280_temperature;BME280_humidity;BME280_pressure;Samples;Min_cycle;Max_cycle;Signal;HPM_P1;HPM_P2
2023/05/22 00:00:34;;;;;;;10.95;7.45;;;;;;;18.66;100.00;99481.94;5126787;27;20046;-64
2023/05/22 00:03:02;;;;;;;12.98;7.78;;;;;;;18.64;100.00;99481.34;5127340;27;20232;-64
2023/05/22 00:05:28;;;;;;;13.38;7.97;;;;;;;18.65;100.00;99474.94;5125518;27;20066;-64
2023/05/22 00:07:53;;;;;;;9.85;7.18;;;;;;;18.69;100.00;99478.00;5125268;27;20372;-64
2023/05/22 00:10:18;;;;;;;12.88;7.95;;;;;;;18.72;100.00;99485.59;5124744;27;20125;-64
2023/05/22 00:12:44;;;;;;;11.05;7.65;;;;;;;18.74;100.00;99484.38;5127866;27;20329;-63
2023/05/22 00:15:10;;;;;;;12.25;8.43;;;;;;;18.76;100.00;99482.28;5127768;27;20034;-63
2023/05/22 00:17:36;;;;;;;11.18;7.63;;;;;;;18.78;100.00;99472.16;5125873;27;20069;-64
2023/05/22 00:20:05;;;;;;;10.02;7.45;;;;;;;18.75;100.00;99480.66;5125642;27;20039;-64
2023/05/22 00:22:34;;;;;;;12.48;7.97;;;;;;;18.71;100.00;99479.41;5123124;27;20040;-64
2023/05/22 00:25:03;;;;;;;13.73;8.25;;;;;;;18.61;100.00;99486.28;5127401;27;20080;-64
2023/05/22 00:27:28;;;;;;;9.50;8.13;;;;;;;18.61;100.00;99481.78;5122170;27;20065;-64
2023/05/22 00:29:54;;;;;;;12.82;8.43;;;;;;;18.62;100.00;99480.75;5125417;27;20130;-64
2023/05/22 00:32:19;;;;;;;11.45;8.32;;;;;;;18.60;100.00;99471.25;5123933;27;20031;-64
2023/05/22 00:34:45;;;;;;;13.00;8.75;;;;;;;18.53;100.00;99487.41;5123444;27;20051;-64
2023/05/22 00:37:10;;;;;;;13.40;8.75;;;;;;;18.54;100.00;99488.22;5122289;27;20031;-63
2023/05/22 00:39:35;;;;;;;12.07;8.82;;;;;;;18.49;100.00;99489.69;5126392;27;20027;-63
2023/05/22 00:42:01;;;;;;;11.88;8.95;;;;;;;18.32;100.00;99490.47;5125563;27;20081;-64
2023/05/22 00:44:26;;;;;;;12.65;9.15;;;;;;;18.38;100.00;99489.59;5125373;27;20038;-64
2023/05/22 00:46:52;;;;;;;13.65;8.63;;;;;;;18.30;100.00;99489.88;5131934;27;20035;-64
2023/05/22 00:49:17;;;;;;;12.65;9.00;;;;;;;18.25;100.00;99495.06;5121669;27;20098;-64
2023/05/22 00:51:43;;;;;;;11.73;9.32;;;;;;;18.31;100.00;99492.31;5125592;27;20341;-64
2023/05/22 00:54:10;;;;;;;12.43;8.40;;;;;;;18.10;100.00;99493.50;5123353;27;20084;-64
2023/05/22 00:56:36;;;;;;;10.95;8.20;;;;;;;17.96;100.00;99485.78;5126908;27;20213;-63
2023/05/22 00:59:02;;;;;;;11.93;8.50;;;;;;;18.04;100.00;99482.84;5123827;27;20104;-64
2023/05/22 01:01:32;;;;;;;12.25;8.65;;;;;;;18.12;100.00;99490.63;5125816;27;20125;-64
2023/05/22 01:04:00;;;;;;;13.18;9.38;;;;;;;18.25;100.00;99485.16;5125924;27;20236;-64
2023/05/22 01:06:26;;;;;;;13.65;9.02;;;;;;;18.30;100.00;99484.50;5123141;27;20065;-64
2023/05/22 01:08:52;;;;;;;16.98;9.52;;;;;;;18.24;100.00;99488.88;5122817;27;20369;-64
2023/05/22 01:11:31;;;;;;;12.38;8.48;;;;;;;18.13;100.00;99478.84;5124984;27;20090;-63
2023/05/22 01:14:07;;;;;;;11.70;8.30;;;;;;;18.16;100.00;99489.97;5122474;27;20338;-64
2023/05/22 01:16:45;;;;;;;10.50;7.07;;;;;;;18.22;100.00;99485.59;5124904;27;20042;-64
2023/05/22 01:19:16;;;;;;;9.95;7.47;;;;;;;18.22;100.00;99482.09;5124534;27;20040;-63
2023/05/22 01:22:11;;;;;;;11.43;7.30;;;;;;;17.94;100.00;99488.66;5123410;27;20041;-64
2023/05/22 01:24:50;;;;;;;10.98;6.50;;;;;;;17.95;100.00;99484.13;5121587;27;20084;-64
2023/05/22 01:27:41;;;;;;;9.50;6.65;;;;;;;18.07;100.00;99477.88;5125838;27;20058;-63
2023/05/22 01:30:38;;;;;;;10.10;7.55;;;;;;;18.13;100.00;99474.31;5124346;27;20035;-64
2023/05/22 01:33:07;;;;;;;10.32;6.80;;;;;;;18.19;100.00;99478.81;5101121;27;20615;-64
2023/05/22 01:35:33;;;;;;;9.57;7.18;;;;;;;18.27;100.00;99476.91;5121364;27;20062;-64
2023/05/22 01:38:01;;;;;;;11.00;6.78;;;;;;;18.30;100.00;99479.97;5124835;27;20286;-64
2023/05/22 01:40:27;;;;;;;10.02;6.82;;;;;;;18.36;100.00;99479.09;5123742;27;20039;-64
2023/05/22 01:42:53;;;;;;;8.48;6.53;;;;;;;18.37;100.00;99475.38;5124930;27;20301;-63
2023/05/22 01:45:20;;;;;;;12.60;7.45;;;;;;;18.38;100.00;99479.69;5123172;27;20339;-64
2023/05/22 01:47:45;;;;;;;12.88;7.18;;;;;;;18.34;100.00;99472.31;5121057;27;20032;-64
2023/05/22 01:50:12;;;;;;;12.95;7.35;;;;;;;18.32;100.00;99469.84;5124882;27;20042;-64
2023/05/22 01:53:08;;;;;;;10.15;6.72;;;;;;;18.34;100.00;99469.63;5124784;27;20039;-64
2023/05/22 01:55:41;;;;;;;10.35;6.53;;;;;;;18.42;100.00;99477.38;5116867;27;20051;-64
2023/05/22 01:58:10;;;;;;;;;;;;;;;18.48;100.00;99480.00;5121986;27;20042;-64
2023/05/22 02:00:40;;;;;;;8.30;6.32;;;;;;;18.46;99.45;99486.63;5129608;27;20397;-64
2023/05/22 02:03:10;;;;;;;10.00;6.07;;;;;;;18.38;100.00;99474.31;5122878;27;20032;-64
2023/05/22 02:05:38;;;;;;;9.63;6.53;;;;;;;18.43;100.00;99484.38;5122073;27;20039;-64
2023/05/22 02:08:05;;;;;;;10.10;6.80;;;;;;;18.39;100.00;99477.81;5119817;27;20031;-64
2023/05/22 02:10:32;;;;;;;9.52;6.28;;;;;;;18.35;100.00;99474.75;5122207;27;20042;-64
2023/05/22 02:12:59;;;;;;;8.75;6.43;;;;;;;18.29;100.00;99485.53;5125667;27;20064;-64
2023/05/22 02:15:24;;;;;;;10.40;6.13;;;;;;;18.06;100.00;99483.44;5124690;27;20104;-64
2023/05/22 02:17:51;;;;;;;11.88;7.00;;;;;;;18.09;100.00;99493.72;5124255;27;20209;-64
2023/05/22 02:20:17;;;;;;;10.50;7.45;;;;;;;18.17;100.00;99483.56;5120747;27;20176;-64
2023/05/22 02:22:44;;;;;;;13.30;7.13;;;;;;;18.24;100.00;99482.69;5123341;27;20062;-64
2023/05/22 02:25:13;;;;;;;10.90;7.50;;;;;;;18.22;100.00;99490.13;5122097;27;20031;-64
2023/05/22 02:27:43;;;;;;;12.73;7.22;;;;;;;18.18;100.00;99487.06;5120362;27;20035;-64
2023/05/22 02:30:10;;;;;;;14.02;7.63;;;;;;;18.23;100.00;99481.06;5122790;27;20267;-64
2023/05/22 02:32:35;;;;;;;9.20;6.82;;;;;;;18.19;100.00;99484.16;5123088;27;20043;-64
2023/05/22 02:35:02;;;;;;;11.43;7.30;;;;;;;18.24;100.00;99488.88;5121772;27;20073;-64
2023/05/22 02:37:27;;;;;;;12.30;7.38;;;;;;;18.31;100.00;99488.81;5120488;27;20245;-64
2023/05/22 02:39:53;;;;;;;11.52;7.05;;;;;;;18.33;100.00;99484.88;5122944;27;20039;-64
2023/05/22 02:42:18;;;;;;;12.32;8.52;;;;;;;18.35;100.00;99487.34;5120314;27;20031;-64
2023/05/22 02:44:43;;;;;;;10.45;7.22;;;;;;;18.37;100.00;99485.28;5120058;27;20156;-64
2023/05/22 02:47:09;;;;;;;16.52;7.55;;;;;;;18.34;100.00;99480.34;5124415;28;20046;-64
2023/05/22 02:49:34;;;;;;;13.75;8.18;;;;;;;18.36;100.00;99481.75;5129515;28;20401;-64
2023/05/22 02:52:00;;;;;;;12.77;7.00;;;;;;;18.36;100.00;99480.94;5120712;28;20031;-64
2023/05/22 02:54:25;;;;;;;12.60;8.48;;;;;;;18.37;100.00;99475.38;5122316;28;20072;-64
2023/05/22 02:56:51;;;;;;;11.35;7.20;;;;;;;18.31;100.00;99481.59;5123422;28;20361;-64
2023/05/22 02:59:16;;;;;;;9.30;7.00;;;;;;;18.29;100.00;99485.53;5121021;28;20049;-63
2023/05/22 03:01:43;;;;;;;14.05;7.50;;;;;;;18.33;100.00;99484.06;5118978;28;20027;-64
2023/05/22 03:04:08;;;;;;;10.30;7.75;;;;;;;18.35;100.00;99488.16;5120267;28;20124;-64
2023/05/22 03:06:35;;;;;;;10.77;7.07;;;;;;;18.34;100.00;99483.03;5123449;27;20367;-63
2023/05/22 03:09:03;;;;;;;11.65;7.53;;;;;;;18.35;100.00;99476.63;5121818;28;20040;-63
2023/05/22 03:11:29;;;;;;;11.15;7.10;;;;;;;18.39;100.00;99486.69;5120173;28;20113;-64
2023/05/22 03:13:55;;;;;;;13.20;7.20;;;;;;;18.40;100.00;99480.28;5123852;28;20063;-64
2023/05/22 03:16:20;;;;;;;13.02;7.40;;;;;;;18.38;100.00;99481.53;5125019;28;20336;-64
2023/05/22 03:18:46;;;;;;;12.75;7.22;;;;;;;18.37;100.00;99479.91;5120727;28;20043;-64
2023/05/22 03:21:11;;;;;;;11.60;8.13;;;;;;;18.37;100.00;99487.94;5118476;28;20049;-64
2023/05/22 03:23:37;;;;;;;8.75;7.22;;;;;;;18.30;100.00;99479.97;5119922;27;20047;-64
2023/05/22 03:26:02;;;;;;;11.73;7.97;;;;;;;18.22;100.00;99477.56;5124736;28;20043;-64
2023/05/22 03:28:28;;;;;;;11.18;7.78;;;;;;;18.28;100.00;99482.03;5124172;28;20040;-64
2023/05/22 03:30:53;;;;;;;13.02;7.25;;;;;;;18.29;100.00;99486.34;5121524;28;20264;-64
2023/05/22 03:33:18;;;;;;;12.75;7.97;;;;;;;18.34;100.00;99483.03;5122698;28;20039;-64
2023/05/22 03:35:44;;;;;;;12.90;7.88;;;;;;;18.33;100.00;99479.53;5122117;28;20337;-64
2023/05/22 03:38:10;;;;;;;9.95;7.00;;;;;;;18.35;100.00;99479.31;5121937;28;20023;-64
2023/05/22 03:40:35;;;;;;;9.55;7.15;;;;;;;18.39;100.00;99484.00;5121721;27;20352;-64
2023/05/22 03:43:00;;;;;;;10.95;6.93;;;;;;;18.42;100.00;99482.75;5123340;27;20251;-64
2023/05/22 03:45:26;;;;;;;9.02;7.13;;;;;;;18.43;99.98;99489.75;5127467;27;20043;-64
2023/05/22 03:47:51;;;;;;;15.30;7.35;;;;;;;18.45;99.77;99479.63;5126596;27;20249;-64
2023/05/22 03:50:17;;;;;;;11.95;7.53;;;;;;;18.43;100.00;99484.38;5127549;27;20027;-64
2023/05/22 03:52:42;;;;;;;10.23;7.38;;;;;;;18.44;100.00;99492.22;5126748;27;20076;-64
2023/05/22 03:55:08;;;;;;;9.23;7.20;;;;;;;18.50;100.00;99493.19;5126014;27;20354;-64
2023/05/22 03:57:33;;;;;;;10.13;6.97;;;;;;;18.52;99.88;99497.31;5123720;27;20098;-64
2023/05/22 04:00:05;;;;;;;11.02;7.22;;;;;;;18.60;99.60;99500.75;5124410;27;20037;-64
2023/05/22 04:02:31;;;;;;;10.75;7.25;;;;;;;18.65;99.82;99490.22;5126509;27;20397;-64
2023/05/22 04:04:56;;;;;;;10.15;6.60;;;;;;;18.66;99.34;99489.16;5125463;27;20055;-64
2023/05/22 04:07:22;;;;;;;12.30;6.65;;;;;;;18.65;99.31;99484.84;5123861;27;20032;-64
2023/05/22 04:09:47;;;;;;;9.32;6.68;;;;;;;18.64;98.72;99485.88;5133232;27;20039;-64
2023/05/22 04:12:12;;;;;;;8.65;6.57;;;;;;;18.62;98.79;99485.28;5135057;27;20031;-64
2023/05/22 04:14:38;;;;;;;11.27;7.45;;;;;;;18.64;99.16;99475.16;5135926;27;20248;-64
2023/05/22 04:17:03;;;;;;;12.48;7.60;;;;;;;18.65;98.34;99484.84;5134661;27;20308;-64
2023/05/22 04:19:29;;;;;;;10.07;7.43;;;;;;;18.59;98.70;99483.84;5136724;27;20100;-64
2023/05/22 04:21:57;;;;;;;12.80;8.50;;;;;;;18.60;98.89;99487.34;5135441;27;20336;-64
2023/05/22 04:24:22;;;;;;;12.93;8.23;;;;;;;18.60;98.37;99498.06;5134026;27;20051;-64
2023/05/22 04:26:48;;;;;;;10.98;8.00;;;;;;;18.58;98.25;99492.09;5133826;27;20093;-64
2023/05/22 04:29:15;;;;;;;11.23;8.13;;;;;;;18.52;98.70;99491.94;5134510;27;20053;-63
2023/05/22 04:31:41;;;;;;;11.68;7.93;;;;;;;18.56;99.36;99497.69;5134510;27;20031;-64
2023/05/22 04:34:14;;;;;;;12.10;7.93;;;;;;;18.54;99.32;99491.72;5133419;27;20333;-64
2023/05/22 04:36:39;;;;;;;9.77;6.93;;;;;;;18.51;99.92;99494.84;5132685;27;20062;-63
2023/05/22 04:39:05;;;;;;;12.73;7.93;;;;;;;18.53;99.40;99495.44;5131514;27;20788;-64
2023/05/22 04:41:31;;;;;;;11.23;7.90;;;;;;;18.54;99.88;99501.63;5131830;27;20031;-64
2023/05/22 04:43:57;;;;;;;11.75;8.00;;;;;;;18.56;100.00;99492.31;5135836;27;20035;-64
2023/05/22 04:46:22;;;;;;;11.50;7.22;;;;;;;18.62;100.00;99491.47;5132785;27;20031;-64
2023/05/22 04:48:48;;;;;;;13.48;8.40;;;;;;;18.56;100.00;99492.31;5133177;27;20042;-64
2023/05/22 04:51:13;;;;;;;11.13;7.53;;;;;;;18.62;100.00;99496.84;5135901;27;20344;-64
2023/05/22 04:53:39;;;;;;;14.07;8.23;;;;;;;18.63;100.00;99493.13;5130392;27;20256;-65
2023/05/22 04:56:05;;;;;;;15.68;8.18;;;;;;;18.57;100.00;99501.19;5134765;27;20050;-64
2023/05/22 04:58:31;;;;;;;10.80;8.23;;;;;;;18.52;100.00;99499.97;5134557;27;20037;-64
2023/05/22 05:00:56;;;;;;;12.80;9.07;;;;;;;18.48;100.00;99503.31;5134385;27;20038;-65
2023/05/22 05:03:24;;;;;;;12.02;8.38;;;;;;;18.46;99.86;99505.41;5132452;27;20043;-64
2023/05/22 05:05:50;;;;;;;12.07;8.73;;;;;;;18.44;99.45;99510.97;5133690;27;20106;-65
2023/05/22 05:08:16;;;;;;;11.05;8.25;;;;;;;18.41;99.80;99516.78;5132061;27;20035;-65
2023/05/22 05:10:41;;;;;;;15.20;9.88;;;;;;;18.41;99.80;99510.59;5121918;27;20338;-65
2023/05/22 05:13:06;;;;;;;15.60;9.63;;;;;;;18.45;100.00;99509.13;5122872;27;20023;-65
2023/05/22 05:15:32;;;;;;;19.40;9.50;;;;;;;18.50;100.00;99510.09;5122845;27;20031;-65
2023/05/22 05:17:57;;;;;;;13.98;9.82;;;;;;;18.55;100.00;99506.75;5128490;27;20037;-62
2023/05/22 05:20:23;;;;;;;14.93;9.20;;;;;;;18.63;99.97;99509.19;5132403;27;20038;-63
2023/05/22 05:22:49;;;;;;;14.52;9.13;;;;;;;18.62;99.46;99514.78;5131893;27;20042;-63
2023/05/22 05:25:15;;;;;;;10.38;8.68;;;;;;;18.69;98.51;99513.69;5132573;27;20035;-63
2023/05/22 05:27:40;;;;;;;11.43;8.10;;;;;;;18.77;96.48;99515.28;5134034;27;20103;-63
2023/05/22 05:30:07;;;;;;;12.10;8.55;;;;;;;18.73;97.44;99517.59;5132680;27;20049;-63
2023/05/22 05:32:32;;;;;;;13.50;8.07;;;;;;;18.83;97.31;99517.09;5134910;27;20031;-63
2023/05/22 05:34:58;;;;;;;10.77;7.25;;;;;;;18.90;96.87;99523.22;5133546;27;20039;-64
2023/05/22 05:37:23;;;;;;;11.60;8.15;;;;;;;18.74;96.47;99523.78;5134408;27;20023;-63
2023/05/22 05:39:49;;;;;;;9.48;7.80;;;;;;;18.83;96.12;99516.28;5131413;27;20043;-63
2023/05/22 05:42:16;;;;;;;14.73;8.13;;;;;;;18.91;95.40;99529.41;5133818;27;20051;-63
2023/05/22 05:44:41;;;;;;;12.73;7.55;;;;;;;19.00;95.88;99528.06;5133104;27;20322;-64
2023/05/22 05:47:07;;;;;;;10.70;7.00;;;;;;;18.89;93.43;99532.31;5132344;27;20046;-63
2023/05/22 05:49:32;;;;;;;11.18;6.97;;;;;;;18.92;94.51;99531.88;5134123;27;20449;-63
2023/05/22 05:51:57;;;;;;;10.05;6.88;;;;;;;19.43;92.21;99530.69;5132427;27;20096;-63
2023/05/22 05:54:25;;;;;;;12.07;7.05;;;;;;;19.56;90.53;99532.44;5133114;27;20046;-64
2023/05/22 05:56:50;;;;;;;11.98;7.97;;;;;;;19.67;89.63;99540.56;5130312;27;20023;-63
2023/05/22 05:59:17;;;;;;;10.57;6.85;;;;;;;20.01;88.72;99540.97;5132141;27;20031;-63
2023/05/22 06:01:47;;;;;;;12.63;7.28;;;;;;;20.26;84.75;99548.88;5132225;27;20038;-64
2023/05/22 06:04:13;;;;;;;11.75;6.90;;;;;;;20.35;82.01;99552.88;5130733;27;20031;-63
2023/05/22 06:06:38;;;;;;;9.88;6.00;;;;;;;20.48;78.64;99550.00;5132849;27;20088;-63
2023/05/22 06:09:05;;;;;;;11.02;6.72;;;;;;;20.63;79.40;99541.50;5129977;27;20299;-63
2023/05/22 06:11:31;;;;;;;9.00;6.57;;;;;;;20.86;78.40;99557.69;5130909;27;20134;-64
2023/05/22 06:13:58;;;;;;;8.95;6.43;;;;;;;21.14;76.90;99556.97;5131389;27;20042;-64
2023/05/22 06:16:24;;;;;;;8.43;6.25;;;;;;;21.11;74.66;99570.09;5130886;27;20359;-63
2023/05/22 06:18:51;;;;;;;10.20;5.82;;;;;;;21.23;74.47;99563.69;5130200;27;20145;-64
2023/05/22 06:21:19;;;;;;;10.93;6.22;;;;;;;21.57;75.08;99563.84;5130313;27;20336;-64
2023/05/22 06:23:45;;;;;;;12.07;6.80;;;;;;;21.93;73.60;99557.34;5129355;27;20039;-64
2023/05/22 06:26:11;;;;;;;9.32;5.88;;;;;;;22.33;72.94;99559.16;5134768;27;20209;-64
2023/05/22 06:28:36;;;;;;;10.80;6.13;;;;;;;22.65;71.49;99556.75;5136422;27;20035;-64
2023/05/22 06:31:02;;;;;;;7.97;6.65;;;;;;;22.86;69.97;99561.44;5134726;27;20068;-64
2023/05/22 06:33:27;;;;;;;9.02;5.75;;;;;;;22.95;65.07;99559.97;5135887;27;20088;-64
2023/05/22 06:35:52;;;;;;;9.43;5.72;;;;;;;22.92;65.63;99547.78;5136895;27;20364;-64
2023/05/22 06:38:18;;;;;;;7.90;5.78;;;;;;;22.99;65.49;99558.41;5137443;27;20042;-64
2023/05/22 06:40:43;;;;;;;8.18;4.82;;;;;;;23.20;63.64;99546.03;5137023;27;20027;-64
2023/05/22 06:43:09;;;;;;;7.70;5.18;;;;;;;23.44;61.69;99550.13;5137220;27;20027;-64
2023/05/22 06:45:36;;;;;;;6.68;4.97;;;;;;;23.68;60.36;99553.44;5137112;27;20270;-64
2023/05/22 06:48:01;;;;;;;7.40;4.72;;;;;;;23.97;57.31;99548.66;5137056;27;20297;-64
2023/05/22 06:50:27;;;;;;;11.55;4.82;;;;;;;24.15;55.20;99551.00;5137038;27;20039;-64
2023/05/22 06:52:52;;;;;;;5.40;4.40;;;;;;;24.17;53.88;99554.25;5136824;27;20030;-64
2023/05/22 06:55:18;;;;;;;6.60;4.75;;;;;;;23.87;54.19;99564.72;5137789;27;20263;-64
2023/05/22 06:57:43;;;;;;;6.32;4.00;;;;;;;23.67;52.09;99559.91;5136579;27;20225;-64
2023/05/22 07:00:11;;;;;;;5.65;4.30;;;;;;;23.49;54.84;99557.47;5135686;27;20064;-64
2023/05/22 07:02:37;;;;;;;9.93;4.70;;;;;;;23.37;55.50;99557.59;5136466;27;20031;-64
2023/05/22 07:05:03;;;;;;;6.95;4.57;;;;;;;23.30;55.13;99562.38;5136674;27;20363;-64
2023/05/22 07:07:28;;;;;;;7.97;4.82;;;;;;;23.33;55.37;99556.47;5137162;27;20027;-64
2023/05/22 07:09:53;;;;;;;5.93;4.60;;;;;;;23.42;56.18;99551.44;5137257;27;20057;-64
2023/05/22 07:12:24;;;;;;;9.50;4.63;;;;;;;23.43;55.67;99558.47;5137057;27;20031;-64
2023/05/22 07:14:50;;;;;;;9.45;5.53;;;;;;;23.55;54.10;99554.63;5136631;27;20352;-64
2023/05/22 07:17:15;;;;;;;9.77;4.80;;;;;;;23.67;51.96;99557.19;5139863;27;20035;-64
2023/05/22 07:19:41;;;;;;;7.32;4.82;;;;;;;23.88;51.76;99553.66;5140218;27;20113;-64
2023/05/22 07:22:06;;;;;;;10.55;4.82;;;;;;;24.04;51.72;99551.97;5140125;27;20254;-64
2023/05/22 07:24:32;;;;;;;8.68;4.60;;;;;;;24.24;52.46;99551.34;5140411;27;20039;-64
2023/05/22 07:26:57;;;;;;;5.05;4.05;;;;;;;24.42;51.31;99558.31;5141787;27;20035;-64
2023/05/22 07:29:22;;;;;;;6.35;4.47;;;;;;;24.57;49.73;99565.75;5138894;27;20043;-64
2023/05/22 07:31:48;;;;;;;5.45;4.03;;;;;;;24.60;51.75;99565.22;5140730;27;20030;-64
2023/05/22 07:34:13;;;;;;;6.07;3.80;;;;;;;24.63;49.80;99562.81;5140591;27;20080;-64
2023/05/22 07:36:39;;;;;;;5.53;4.43;;;;;;;24.60;49.89;99557.13;5141012;27;20104;-64
2023/05/22 07:39:05;;;;;;;7.65;4.30;;;;;;;24.70;49.52;99566.13;5140876;27;20209;-65
2023/05/22 07:41:31;;;;;;;6.05;4.25;;;;;;;24.57;51.12;99553.03;5140543;27;20064;-64
2023/05/22 07:43:56;;;;;;;8.10;4.68;;;;;;;24.43;50.62;99554.53;5140661;27;20035;-64
2023/05/22 07:46:21;;;;;;;5.78;4.25;;;;;;;24.32;51.37;99563.63;5140126;27;20046;-64
2023/05/22 07:48:47;;;;;;;10.25;4.70;;;;;;;24.17;52.70;99556.97;5139789;27;20039;-64
2023/05/22 07:51:12;;;;;;;6.25;4.57;;;;;;;24.18;52.68;99555.09;5139677;27;20040;-65
2023/05/22 07:53:38;;;;;;;7.25;4.03;;;;;;;24.16;51.41;99559.94;5139215;27;20026;-65
2023/05/22 07:56:03;;;;;;;5.78;4.20;;;;;;;24.11;53.29;99555.28;5141151;27;20035;-65
2023/05/22 07:58:29;;;;;;;6.15;4.22;;;;;;;23.51;51.60;99560.75;5140607;27;20201;-65
2023/05/22 08:00:54;;;;;;;5.68;4.40;;;;;;;23.47;52.83;99556.91;5139919;27;20043;-65
2023/05/22 08:03:20;;;;;;;6.20;4.32;;;;;;;23.79;52.92;99559.78;5138916;27;20043;-65
2023/05/22 08:05:46;;;;;;;6.68;4.60;;;;;;;24.20;52.50;99553.75;5140307;27;20333;-64
2023/05/22 08:08:11;;;;;;;7.45;4.30;;;;;;;24.73;50.82;99562.09;5152568;27;20026;-65
2023/05/22 08:10:37;;;;;;;6.30;3.90;;;;;;;25.09;46.89;99557.81;5140620;27;20035;-66
2023/05/22 08:13:05;;;;;;;4.70;4.15;;;;;;;25.31;46.17;99553.06;5139563;27;20023;-65
2023/05/22 08:15:31;;;;;;;8.10;4.90;;;;;;;25.41;47.35;99557.72;5140191;27;20059;-65
2023/05/22 08:17:56;;;;;;;8.48;4.75;;;;;;;25.55;46.70;99550.72;5140058;27;20365;-65
2023/05/22 08:20:22;;;;;;;6.00;3.97;;;;;;;25.88;45.30;99549.53;5139919;27;20072;-65
2023/05/22 08:22:47;;;;;;;5.95;3.58;;;;;;;26.05;42.00;99549.31;5139364;27;20035;-65
2023/05/22 08:25:13;;;;;;;5.85;3.90;;;;;;;25.95;41.59;99551.97;5121291;27;20519;-65
2023/05/22 08:27:38;;;;;;;5.82;3.80;;;;;;;25.90;41.41;99552.78;5138773;27;20039;-65
2023/05/22 08:30:04;;;;;;;7.13;4.25;;;;;;;25.86;43.05;99559.00;5139679;27;20038;-64
2023/05/22 08:32:30;;;;;;;6.05;3.85;;;;;;;25.80;44.36;99554.66;5139595;27;20035;-65
2023/05/22 08:34:55;;;;;;;8.15;3.90;;;;;;;25.60;43.87;99550.75;5139407;27;20023;-63
2023/05/22 08:37:20;;;;;;;6.75;4.22;;;;;;;25.53;45.95;99557.50;5139465;27;20045;-63
2023/05/22 08:39:46;;;;;;;5.13;3.95;;;;;;;25.23;45.83;99550.03;5138921;27;20026;-63
2023/05/22 08:42:12;;;;;;;5.30;3.63;;;;;;;25.50;45.49;99552.59;5138940;27;20072;-63
2023/05/22 08:44:38;;;;;;;5.75;3.92;;;;;;;25.75;45.58;99556.25;5141207;27;20058;-65
2023/05/22 08:47:08;;;;;;;6.32;3.88;;;;;;;25.75;45.06;99555.44;5151454;27;20356;-63
2023/05/22 08:49:34;;;;;;;4.75;3.65;;;;;;;25.94;43.44;99548.44;5139544;27;20357;-63
2023/05/22 08:52:09;;;;;;;4.80;4.20;;;;;;;25.69;44.69;99557.31;5139150;27;20077;-63
2023/05/22 08:54:38;;;;;;;6.28;4.32;;;;;;;25.44;44.70;99547.16;5139356;27;20035;-63
2023/05/22 08:57:04;;;;;;;6.35;3.88;;;;;;;25.48;43.56;99544.72;5135164;27;20394;-63
2023/05/22 08:59:31;;;;;;;7.95;4.10;;;;;;;25.66;44.15;99543.47;5134170;27;20079;-64
2023/05/22 09:01:57;;;;;;;7.00;4.03;;;;;;;25.89;44.84;99543.00;5132461;27;20031;-63
2023/05/22 09:04:23;;;;;;;6.95;4.22;;;;;;;25.94;44.34;99542.22;5130218;27;20061;-63
2023/05/22 09:06:49;;;;;;;6.10;4.10;;;;;;;26.21;43.52;99542.03;5133815;27;20088;-63
2023/05/22 09:09:14;;;;;;;5.20;4.15;;;;;;;26.38;44.96;99532.56;5133669;27;20110;-63
2023/05/22 09:11:40;;;;;;;7.00;4.50;;;;;;;26.57;45.50;99534.75;5133978;27;20031;-63
2023/05/22 09:14:07;;;;;;;8.52;4.70;;;;;;;25.68;46.02;99542.13;5133403;27;20023;-63
2023/05/22 09:16:32;;;;;;;7.30;4.28;;;;;;;24.83;47.50;99543.22;5133497;27;20042;-64
2023/05/22 09:18:58;;;;;;;9.05;4.70;;;;;;;25.08;46.58;99538.03;5131601;27;20098;-64
2023/05/22 09:21:28;;;;;;;6.30;4.25;;;;;;;25.37;48.47;99529.50;5131988;27;20232;-64
2023/05/22 09:23:57;;;;;;;6.50;4.03;;;;;;;25.56;46.71;99532.56;5132239;27;20218;-63
2023/05/22 09:26:27;;;;;;;6.78;4.63;;;;;;;25.53;46.43;99524.97;5129022;27;20058;-64
2023/05/22 09:28:52;;;;;;;7.05;4.30;;;;;;;25.76;46.06;99516.41;5131848;27;20031;-64
2023/05/22 09:31:18;;;;;;;6.97;4.25;;;;;;;25.83;45.73;99518.84;5131147;27;20047;-64
2023/05/22 09:33:43;;;;;;;5.15;3.95;;;;;;;25.52;46.99;99524.16;5131717;27;20321;-64
2023/05/22 09:36:09;;;;;;;5.10;3.67;;;;;;;25.31;46.45;99527.84;5113350;27;20034;-64
2023/05/22 09:38:35;;;;;;;6.55;4.15;;;;;;;25.22;50.98;99515.88;5132241;27;20069;-63
2023/05/22 09:41:00;;;;;;;6.22;3.95;;;;;;;25.43;48.15;99520.31;5132363;27;20256;-64
2023/05/22 09:43:26;;;;;;;7.75;4.25;;;;;;;25.28;46.24;99515.66;5133407;27;20046;-64
2023/05/22 09:46:03;;;;;;;6.10;3.53;;;;;;;25.44;46.36;99513.81;5132550;27;20031;-64
2023/05/22 09:48:32;;;;;;;8.32;3.80;;;;;;;25.40;45.99;99518.13;5132932;27;20064;-64
2023/05/22 09:50:59;;;;;;;6.55;3.38;;;;;;;25.01;41.23;99521.19;5132744;27;20035;-63
2023/05/22 09:53:27;;;;;;;4.45;3.10;;;;;;;25.02;42.69;99522.00;5132980;27;20054;-64
2023/05/22 09:55:55;;;;;;;4.05;3.53;;;;;;;25.05;41.90;99514.16;5132842;27;20030;-64
2023/05/22 09:58:24;;;;;;;4.38;3.80;;;;;;;25.11;45.90;99517.72;5128578;27;20120;-64
2023/05/22 10:00:51;;;;;;;7.00;3.55;;;;;;;25.24;44.62;99513.72;5131150;27;20426;-64
2023/05/22 10:03:22;;;;;;;5.22;3.60;;;;;;;25.33;43.62;99510.25;5133621;27;20038;-64
2023/05/22 10:05:50;;;;;;;4.35;3.78;;;;;;;25.39;43.85;99511.09;5133132;27;20054;-64
2023/05/22 10:08:26;;;;;;;5.82;2.95;;;;;;;25.55;44.74;99506.53;5134559;27;20055;-64
2023/05/22 10:10:52;;;;;;;4.50;3.22;;;;;;;25.46;44.08;99501.63;5137124;27;20027;-64
2023/05/22 10:13:18;;;;;;;4.28;3.00;;;;;;;25.13;38.69;99515.56;5137575;27;20045;-64
2023/05/22 10:15:46;;;;;;;5.05;2.97;;;;;;;24.14;39.83;99489.03;5137642;27;20027;-63
2023/05/22 10:18:14;;;;;;;5.10;3.10;;;;;;;24.28;38.66;99505.69;5136788;27;20068;-64
2023/05/22 10:20:39;;;;;;;4.18;2.92;;;;;;;24.52;42.22;99494.25;5137331;27;21014;-64
2023/05/22 10:23:08;;;;;;;10.75;3.70;;;;;;;24.78;44.96;99497.16;5135683;27;20065;-63
2023/05/22 10:25:36;;;;;;;7.20;3.58;;;;;;;25.00;43.01;99495.19;5137147;27;20368;-64
2023/05/22 10:28:04;;;;;;;7.43;3.53;;;;;;;25.14;43.35;99492.81;5137939;27;20337;-64
2023/05/22 10:30:59;;;;;;;6.63;3.42;;;;;;;25.24;42.61;99484.72;5136868;27;20035;-64
2023/05/22 10:33:40;;;;;;;4.90;3.70;;;;;;;25.28;42.99;99485.84;5135007;27;20117;-64
2023/05/22 10:36:32;;;;;;;4.88;3.63;;;;;;;25.40;44.68;99491.03;5136589;27;20023;-64
2023/05/22 10:39:39;;;;;;;3.88;3.33;;;;;;;25.47;43.47;99491.59;5094869;27;20393;-64
2023/05/22 10:42:04;;;;;;;6.25;3.53;;;;;;;25.27;45.18;99492.34;5137241;27;20337;-64
2023/05/22 10:44:32;;;;;;;6.40;3.65;;;;;;;24.77;45.02;99493.63;5136856;27;20102;-63
2023/05/22 10:47:08;;;;;;;6.60;3.60;;;;;;;24.60;44.16;99490.25;5136807;27;20146;-64
2023/05/22 10:49:34;;;;;;;5.68;3.50;;;;;;;24.85;44.94;99478.78;5137061;27;20221;-64
2023/05/22 10:52:02;;;;;;;4.93;3.40;;;;;;;25.04;43.34;99479.22;5136058;27;20050;-63
2023/05/22 10:54:42;;;;;;;6.88;3.55;;;;;;;25.04;45.98;99471.09;5136821;27;20437;-63
2023/05/22 10:57:15;;;;;;;4.78;3.50;;;;;;;25.21;42.72;99462.75;5137431;27;20236;-63
2023/05/22 10:59:42;;;;;;;6.35;3.10;;;;;;;25.38;43.19;99456.06;5137102;27;20035;-63
2023/05/22 11:02:21;;;;;;;5.78;3.42;;;;;;;25.43;41.17;99450.66;5134157;27;20033;-63
2023/05/22 11:04:47;;;;;;;4.53;3.10;;;;;;;25.51;42.23;99445.78;5132058;27;20107;-63
2023/05/22 11:07:14;;;;;;;5.13;3.58;;;;;;;25.22;40.01;99450.84;5131768;27;20039;-64
2023/05/22 11:09:47;;;;;;;3.55;2.90;;;;;;;24.97;40.32;99448.78;5131906;27;20422;-63
2023/05/22 11:12:29;;;;;;;7.00;3.47;;;;;;;24.82;41.97;99463.88;5130125;27;20031;-63
2023/05/22 11:15:04;;;;;;;6.93;3.38;;;;;;;24.66;39.29;99450.50;5130770;27;20232;-63
2023/05/22 11:17:32;;;;;;;7.15;4.18;;;;;;;24.66;38.83;99456.72;5130177;27;20354;-64
2023/05/22 11:20:05;;;;;;;5.28;3.30;;;;;;;24.54;41.98;99464.22;5130298;27;20225;-63
2023/05/22 11:22:40;;;;;;;3.45;3.10;;;;;;;24.60;40.12;99465.06;5129239;27;20043;-63
2023/05/22 11:25:10;;;;;;;4.82;3.15;;;;;;;24.55;38.13;99479.38;5130738;27;20132;-63
2023/05/22 11:27:38;;;;;;;7.40;3.22;;;;;;;23.35;54.06;99513.81;5128204;27;20103;-63